sensor_id;sensor_type;location;lat;lon;timestamp;P1;durP1;ratioP1;P2;durP2;ratioP2
40204;SDS011;26963;42.666;23.366;2023-06-10T00:02:04;8.40;;;6.80;;
40204;SDS011;26963;42.666;23.366;2023-06-10T00:04:30;10.85;;;6.60;;
40204;SDS011;26963;42.666;23.366;2023-06-10T00:06:55;12.38;;;7.30;;
40204;SDS011;26963;42.666;23.366;2023-06-10T00:09:22;11.93;;;7.30;;
40204;SDS011;26963;42.666;23.366;2023-06-10T00:11:48;11.75;;;7.50;;
40204;SDS011;26963;42.666;23.366;2023-06-10T00:14:13;9.75;;;7.30;;
40204;SDS011;26963;42.666;23.366;2023-06-10T00:16:39;9.18;;;6.82;;
40204;SDS011;26963;42.666;23.366;2023-06-10T00:19:04;9.80;;;7.07;;
40204;SDS011;26963;42.666;23.366;2023-06-10T00:21:30;9.57;;;7.28;;
40204;SDS011;26963;42.666;23.366;2023-06-10T00:24:05;11.05;;;7.35;;
40204;SDS011;26963;42.666;23.366;2023-06-10T00:26:32;10.95;;;6.95;;
40204;SDS011;26963;42.666;23.366;2023-06-10T00:28:58;8.85;;;7.13;;
40204;SDS011;26963;42.666;23.366;2023-06-10T00:31:24;10.10;;;7.47;;
40204;SDS011;26963;42.666;23.366;2023-06-10T00:33:52;10.52;;;7.25;;
40204;SDS011;26963;42.666;23.366;2023-06-10T00:36:17;12.35;;;8.10;;
40204;SDS011;26963;42.666;23.366;2023-06-10T00:38:43;10.57;;;8.13;;
40204;SDS011;26963;42.666;23.366;2023-06-10T00:41:08;8.60;;;7.40;;
40204;SDS011;26963;42.666;23.366;2023-06-10T00:43:34;8.60;;;7.32;;
40204;SDS011;26963;42.666;23.366;2023-06-10T00:46:00;11.43;;;7.53;;
40204;SDS011;26963;42.666;23.366;2023-06-10T00:48:26;8.55;;;7.30;;
40204;SDS011;26963;42.666;23.366;2023-06-10T00:50:52;11.23;;;7.88;;
40204;SDS011;26963;42.666;23.366;2023-06-10T00:53:18;15.02;;;7.75;;
40204;SDS011;26963;42.666;23.366;2023-06-10T00:55:44;10.93;;;7.43;;
40204;SDS011;26963;42.666;23.366;2023-06-10T00:58:10;9.57;;;7.78;;
40204;SDS011;26963;42.666;23.366;2023-06-10T01:00:36;9.52;;;8.13;;
40204;SDS011;26963;42.666;23.366;2023-06-10T01:03:02;11.82;;;8.00;;
40204;SDS011;26963;42.666;23.366;2023-06-10T01:05:33;10.50;;;8.25;;
40204;SDS011;26963;42.666;23.366;2023-06-10T01:08:01;14.55;;;9.32;;
40204;SDS011;26963;42.666;23.366;2023-06-10T01:13:06;10.82;;;8.30;;
40204;SDS011;26963;42.666;23.366;2023-06-10T01:15:36;12.43;;;8.73;;
40204;SDS011;26963;42.666;23.366;2023-06-10T01:20:30;10.98;;;8.57;;
40204;SDS011;26963;42.666;23.366;2023-06-10T01:22:58;9.27;;;8.25;;
40204;SDS011;26963;42.666;23.366;2023-06-10T01:25:24;10.48;;;8.57;;
40204;SDS011;26963;42.666;23.366;2023-06-10T01:33:10;11.45;;;8.93;;
40204;SDS011;26963;42.666;23.366;2023-06-10T01:35:41;9.82;;;8.55;;
40204;SDS011;26963;42.666;23.366;2023-06-10T01:38:08;12.23;;;9.82;;
40204;SDS011;26963;42.666;23.366;2023-06-10T01:40:35;11.07;;;9.88;;
40204;SDS011;26963;42.666;23.366;2023-06-10T01:43:02;15.02;;;10.73;;
40204;SDS011;26963;42.666;23.366;2023-06-10T01:45:27;11.95;;;10.75;;
40204;SDS011;26963;42.666;23.366;2023-06-10T01:47:53;13.68;;;10.20;;
40204;SDS011;26963;42.666;23.366;2023-06-10T01:50:18;13.40;;;10.50;;
40204;SDS011;26963;42.666;23.366;2023-06-10T01:52:45;13.23;;;11.35;;
40204;SDS011;26963;42.666;23.366;2023-06-10T01:55:10;12.27;;;10.68;;
40204;SDS011;26963;42.666;23.366;2023-06-10T01:57:36;13.45;;;10.68;;
40204;SDS011;26963;42.666;23.366;2023-06-10T02:00:01;11.82;;;9.88;;
40204;SDS011;26963;42.666;23.366;2023-06-10T02:02:28;13.18;;;10.82;;
40204;SDS011;26963;42.666;23.366;2023-06-10T02:04:53;13.68;;;10.68;;
40204;SDS011;26963;42.666;23.366;2023-06-10T02:07:19;14.27;;;10.52;;
40204;SDS011;26963;42.666;23.366;2023-06-10T02:09:45;10.38;;;9.27;;
40204;SDS011;26963;42.666;23.366;2023-06-10T02:12:10;11.18;;;9.05;;
40204;SDS011;26963;42.666;23.366;2023-06-10T02:14:36;10.43;;;9.43;;
40204;SDS011;26963;42.666;23.366;2023-06-10T02:17:02;10.00;;;8.93;;
40204;SDS011;26963;42.666;23.366;2023-06-10T02:19:28;11.13;;;9.40;;
40204;SDS011;26963;42.666;23.366;2023-06-10T02:21:53;10.60;;;8.05;;
40204;SDS011;26963;42.666;23.366;2023-06-10T02:24:19;12.60;;;9.20;;
40204;SDS011;26963;42.666;23.366;2023-06-10T02:26:45;9.45;;;8.48;;
40204;SDS011;26963;42.666;23.366;2023-06-10T02:29:11;11.65;;;9.10;;
40204;SDS011;26963;42.666;23.366;2023-06-10T02:31:36;11.68;;;9.38;;
40204;SDS011;26963;42.666;23.366;2023-06-10T02:34:02;11.15;;;9.23;;
40204;SDS011;26963;42.666;23.366;2023-06-10T02:36:29;11.25;;;9.00;;
40204;SDS011;26963;42.666;23.366;2023-06-10T02:38:54;12.98;;;9.50;;
40204;SDS011;26963;42.666;23.366;2023-06-10T02:41:20;10.27;;;8.63;;
40204;SDS011;26963;42.666;23.366;2023-06-10T02:43:47;11.32;;;8.52;;
40204;SDS011;26963;42.666;23.366;2023-06-10T02:46:12;16.48;;;10.43;;
40204;SDS011;26963;42.666;23.366;2023-06-10T02:48:42;13.75;;;10.95;;
40204;SDS011;26963;42.666;23.366;2023-06-10T02:51:09;11.10;;;9.98;;
40204;SDS011;26963;42.666;23.366;2023-06-10T02:53:35;12.95;;;9.50;;
40204;SDS011;26963;42.666;23.366;2023-06-10T02:56:01;11.82;;;9.40;;
40204;SDS011;26963;42.666;23.366;2023-06-10T02:58:26;15.18;;;9.70;;
40204;SDS011;26963;42.666;23.366;2023-06-10T03:00:52;10.45;;;9.40;;
40204;SDS011;26963;42.666;23.366;2023-06-10T03:03:18;11.25;;;10.02;;
40204;SDS011;26963;42.666;23.366;2023-06-10T03:05:43;12.70;;;9.25;;
40204;SDS011;26963;42.666;23.366;2023-06-10T03:08:09;10.77;;;8.30;;
40204;SDS011;26963;42.666;23.366;2023-06-10T03:10:34;12.20;;;9.00;;
40204;SDS011;26963;42.666;23.366;2023-06-10T03:13:00;11.48;;;10.25;;
40204;SDS011;26963;42.666;23.366;2023-06-10T03:15:26;10.77;;;9.57;;
40204;SDS011;26963;42.666;23.366;2023-06-10T03:17:54;10.80;;;8.60;;
40204;SDS011;26963;42.666;23.366;2023-06-10T03:20:20;14.52;;;9.40;;
40204;SDS011;26963;42.666;23.366;2023-06-10T03:22:46;12.88;;;9.40;;
40204;SDS011;26963;42.666;23.366;2023-06-10T03:25:12;12.18;;;9.43;;
40204;SDS011;26963;42.666;23.366;2023-06-10T03:27:39;12.45;;;9.55;;
40204;SDS011;26963;42.666;23.366;2023-06-10T03:30:06;13.60;;;9.27;;
40204;SDS011;26963;42.666;23.366;2023-06-10T03:32:32;13.25;;;10.05;;
40204;SDS011;26963;42.666;23.366;2023-06-10T03:34:58;10.35;;;9.30;;
40204;SDS011;26963;42.666;23.366;2023-06-10T03:37:24;11.00;;;9.77;;
40204;SDS011;26963;42.666;23.366;2023-06-10T03:39:50;13.32;;;9.63;;
40204;SDS011;26963;42.666;23.366;2023-06-10T03:42:15;16.52;;;10.32;;
40204;SDS011;26963;42.666;23.366;2023-06-10T03:44:41;13.70;;;9.65;;
40204;SDS011;26963;42.666;23.366;2023-06-10T03:47:06;11.68;;;9.18;;
40204;SDS011;26963;42.666;23.366;2023-06-10T03:49:32;12.15;;;8.98;;
40204;SDS011;26963;42.666;23.366;2023-06-10T03:51:58;13.82;;;8.50;;
40204;SDS011;26963;42.666;23.366;2023-06-10T03:54:24;10.70;;;8.50;;
40204;SDS011;26963;42.666;23.366;2023-06-10T03:56:50;15.23;;;8.07;;
40204;SDS011;26963;42.666;23.366;2023-06-10T03:59:16;12.55;;;8.82;;
40204;SDS011;26963;42.666;23.366;2023-06-10T04:01:42;11.32;;;8.45;;
40204;SDS011;26963;42.666;23.366;2023-06-10T04:04:08;12.95;;;7.80;;
40204;SDS011;26963;42.666;23.366;2023-06-10T04:06:34;11.70;;;8.70;;
40204;SDS011;26963;42.666;23.366;2023-06-10T04:09:00;9.00;;;7.85;;
40204;SDS011;26963;42.666;23.366;2023-06-10T04:11:25;10.32;;;8.65;;
40204;SDS011;26963;42.666;23.366;2023-06-10T04:13:51;11.88;;;8.32;;
40204;SDS011;26963;42.666;23.366;2023-06-10T04:16:16;11.88;;;8.75;;
40204;SDS011;26963;42.666;23.366;2023-06-10T04:18:42;10.43;;;8.20;;
40204;SDS011;26963;42.666;23.366;2023-06-10T04:21:07;10.95;;;8.20;;
40204;SDS011;26963;42.666;23.366;2023-06-10T04:23:34;10.13;;;7.10;;
40204;SDS011;26963;42.666;23.366;2023-06-10T04:26:02;8.45;;;6.93;;
40204;SDS011;26963;42.666;23.366;2023-06-10T04:28:27;10.40;;;7.20;;
40204;SDS011;26963;42.666;23.366;2023-06-10T04:30:53;7.97;;;6.47;;
40204;SDS011;26963;42.666;23.366;2023-06-10T04:33:19;9.75;;;6.97;;
40204;SDS011;26963;42.666;23.366;2023-06-10T04:35:44;9.75;;;7.38;;
40204;SDS011;26963;42.666;23.366;2023-06-10T04:38:12;12.73;;;8.70;;
40204;SDS011;26963;42.666;23.366;2023-06-10T04:40:39;9.85;;;8.60;;
40204;SDS011;26963;42.666;23.366;2023-06-10T04:43:05;11.63;;;8.10;;
40204;SDS011;26963;42.666;23.366;2023-06-10T04:45:30;11.43;;;7.38;;
40204;SDS011;26963;42.666;23.366;2023-06-10T04:47:56;9.98;;;7.88;;
40204;SDS011;26963;42.666;23.366;2023-06-10T04:50:23;11.23;;;7.80;;
40204;SDS011;26963;42.666;23.366;2023-06-10T04:52:49;12.15;;;8.00;;
40204;SDS011;26963;42.666;23.366;2023-06-10T04:55:15;13.77;;;8.32;;
40204;SDS011;26963;42.666;23.366;2023-06-10T04:57:41;10.25;;;8.07;;
40204;SDS011;26963;42.666;23.366;2023-06-10T05:00:07;8.38;;;6.85;;
40204;SDS011;26963;42.666;23.366;2023-06-10T05:02:33;10.75;;;8.30;;
40204;SDS011;26963;42.666;23.366;2023-06-10T05:04:59;8.40;;;7.55;;
40204;SDS011;26963;42.666;23.366;2023-06-10T05:07:25;11.30;;;8.02;;
40204;SDS011;26963;42.666;23.366;2023-06-10T05:09:51;13.40;;;9.25;;
40204;SDS011;26963;42.666;23.366;2023-06-10T05:12:16;11.77;;;9.52;;
40204;SDS011;26963;42.666;23.366;2023-06-10T05:14:42;12.57;;;9.93;;
40204;SDS011;26963;42.666;23.366;2023-06-10T05:17:07;11.60;;;9.75;;
40204;SDS011;26963;42.666;23.366;2023-06-10T05:19:33;10.48;;;9.35;;
40204;SDS011;26963;42.666;23.366;2023-06-10T05:22:00;12.05;;;10.52;;
40204;SDS011;26963;42.666;23.366;2023-06-10T05:24:27;13.38;;;9.35;;
40204;SDS011;26963;42.666;23.366;2023-06-10T05:26:52;11.82;;;10.43;;
40204;SDS011;26963;42.666;23.366;2023-06-10T05:29:17;10.63;;;9.52;;
40204;SDS011;26963;42.666;23.366;2023-06-10T05:31:43;11.07;;;9.23;;
40204;SDS011;26963;42.666;23.366;2023-06-10T05:34:09;12.85;;;10.30;;
40204;SDS011;26963;42.666;23.366;2023-06-10T05:36:34;12.48;;;10.10;;
40204;SDS011;26963;42.666;23.366;2023-06-10T05:39:00;13.18;;;10.90;;
40204;SDS011;26963;42.666;23.366;2023-06-10T05:41:25;11.98;;;10.10;;
40204;SDS011;26963;42.666;23.366;2023-06-10T05:43:51;15.25;;;11.07;;
40204;SDS011;26963;42.666;23.366;2023-06-10T05:46:16;14.60;;;11.27;;
40204;SDS011;26963;42.666;23.366;2023-06-10T05:48:42;17.85;;;11.88;;
40204;SDS011;26963;42.666;23.366;2023-06-10T05:51:07;15.73;;;11.73;;
40204;SDS011;26963;42.666;23.366;2023-06-10T05:53:33;14.38;;;11.55;;
40204;SDS011;26963;42.666;23.366;2023-06-10T05:55:58;13.10;;;11.75;;
40204;SDS011;26963;42.666;23.366;2023-06-10T05:58:24;13.68;;;11.88;;
40204;SDS011;26963;42.666;23.366;2023-06-10T06:00:50;12.85;;;11.30;;
40204;SDS011;26963;42.666;23.366;2023-06-10T06:03:16;13.75;;;12.35;;
40204;SDS011;26963;42.666;23.366;2023-06-10T06:05:42;12.60;;;11.30;;
40204;SDS011;26963;42.666;23.366;2023-06-10T06:08:07;12.80;;;11.52;;
40204;SDS011;26963;42.666;23.366;2023-06-10T06:10:33;14.60;;;11.73;;
40204;SDS011;26963;42.666;23.366;2023-06-10T06:12:59;14.60;;;11.80;;
40204;SDS011;26963;42.666;23.366;2023-06-10T06:15:25;14.68;;;11.40;;
40204;SDS011;26963;42.666;23.366;2023-06-10T06:17:51;15.43;;;13.80;;
40204;SDS011;26963;42.666;23.366;2023-06-10T06:20:18;15.13;;;13.63;;
40204;SDS011;26963;42.666;23.366;2023-06-10T06:22:47;13.35;;;12.02;;
40204;SDS011;26963;42.666;23.366;2023-06-10T06:25:12;13.38;;;11.90;;
40204;SDS011;26963;42.666;23.366;2023-06-10T06:27:38;14.55;;;11.27;;
40204;SDS011;26963;42.666;23.366;2023-06-10T06:30:04;13.63;;;9.82;;
40204;SDS011;26963;42.666;23.366;2023-06-10T06:32:30;12.98;;;9.93;;
40204;SDS011;26963;42.666;23.366;2023-06-10T06:34:56;12.82;;;11.25;;
40204;SDS011;26963;42.666;23.366;2023-06-10T06:37:23;12.15;;;10.40;;
40204;SDS011;26963;42.666;23.366;2023-06-10T06:39:52;13.75;;;9.82;;
40204;SDS011;26963;42.666;23.366;2023-06-10T06:42:18;23.88;;;8.70;;
40204;SDS011;26963;42.666;23.366;2023-06-10T06:44:45;19.70;;;8.40;;
40204;SDS011;26963;42.666;23.366;2023-06-10T06:47:11;12.50;;;8.73;;
40204;SDS011;26963;42.666;23.366;2023-06-10T06:49:37;10.88;;;8.20;;
40204;SDS011;26963;42.666;23.366;2023-06-10T06:52:02;13.88;;;8.88;;
40204;SDS011;26963;42.666;23.366;2023-06-10T06:54:28;12.98;;;8.23;;
40204;SDS011;26963;42.666;23.366;2023-06-10T06:56:54;10.63;;;8.32;;
40204;SDS011;26963;42.666;23.366;2023-06-10T06:59:20;12.23;;;7.90;;
40204;SDS011;26963;42.666;23.366;2023-06-10T07:01:46;11.80;;;8.15;;
40204;SDS011;26963;42.666;23.366;2023-06-10T07:04:14;10.85;;;6.75;;
40204;SDS011;26963;42.666;23.366;2023-06-10T07:06:40;11.57;;;8.07;;
40204;SDS011;26963;42.666;23.366;2023-06-10T07:09:07;13.43;;;7.35;;
40204;SDS011;26963;42.666;23.366;2023-06-10T07:11:34;11.55;;;7.72;;
40204;SDS011;26963;42.666;23.366;2023-06-10T07:14:00;11.55;;;7.60;;
40204;SDS011;26963;42.666;23.366;2023-06-10T07:16:25;12.43;;;9.48;;
40204;SDS011;26963;42.666;23.366;2023-06-10T07:18:52;12.25;;;8.32;;
40204;SDS011;26963;42.666;23.366;2023-06-10T07:21:18;9.93;;;7.80;;
40204;SDS011;26963;42.666;23.366;2023-06-10T07:23:43;13.93;;;9.90;;
40204;SDS011;26963;42.666;23.366;2023-06-10T07:26:10;12.18;;;9.57;;
40204;SDS011;26963;42.666;23.366;2023-06-10T07:28:38;11.88;;;9.02;;
40204;SDS011;26963;42.666;23.366;2023-06-10T07:31:04;9.32;;;6.65;;
40204;SDS011;26963;42.666;23.366;2023-06-10T07:33:31;10.63;;;7.07;;
40204;SDS011;26963;42.666;23.366;2023-06-10T07:35:56;11.27;;;7.63;;
40204;SDS011;26963;42.666;23.366;2023-06-10T07:38:22;12.30;;;9.35;;
40204;SDS011;26963;42.666;23.366;2023-06-10T07:40:47;14.32;;;10.23;;
40204;SDS011;26963;42.666;23.366;2023-06-10T07:43:13;8.43;;;7.40;;
40204;SDS011;26963;42.666;23.366;2023-06-10T07:45:41;9.20;;;6.88;;
40204;SDS011;26963;42.666;23.366;2023-06-10T07:48:07;9.20;;;6.68;;
40204;SDS011;26963;42.666;23.366;2023-06-10T07:50:33;9.50;;;5.45;;
40204;SDS011;26963;42.666;23.366;2023-06-10T07:52:59;8.10;;;4.63;;
40204;SDS011;26963;42.666;23.366;2023-06-10T07:55:24;6.65;;;4.38;;
40204;SDS011;26963;42.666;23.366;2023-06-10T07:57:53;8.32;;;5.43;;
40204;SDS011;26963;42.666;23.366;2023-06-10T08:00:19;7.72;;;5.65;;
40204;SDS011;26963;42.666;23.366;2023-06-10T08:02:46;8.93;;;6.30;;
40204;SDS011;26963;42.666;23.366;2023-06-10T08:05:12;9.43;;;5.20;;
40204;SDS011;26963;42.666;23.366;2023-06-10T08:07:38;14.68;;;8.18;;
40204;SDS011;26963;42.666;23.366;2023-06-10T08:10:05;9.52;;;7.45;;
40204;SDS011;26963;42.666;23.366;2023-06-10T08:12:31;8.23;;;5.07;;
40204;SDS011;26963;42.666;23.366;2023-06-10T08:14:57;6.15;;;4.63;;
40204;SDS011;26963;42.666;23.366;2023-06-10T08:17:23;8.80;;;5.82;;
40204;SDS011;26963;42.666;23.366;2023-06-10T08:19:49;6.80;;;5.38;;
40204;SDS011;26963;42.666;23.366;2023-06-10T08:22:14;6.65;;;4.25;;
40204;SDS011;26963;42.666;23.366;2023-06-10T08:24:40;7.82;;;4.10;;
40204;SDS011;26963;42.666;23.366;2023-06-10T08:27:06;7.10;;;4.00;;
40204;SDS011;26963;42.666;23.366;2023-06-10T08:29:31;9.05;;;4.20;;
40204;SDS011;26963;42.666;23.366;2023-06-10T08:31:57;6.38;;;3.60;;
40204;SDS011;26963;42.666;23.366;2023-06-10T08:34:23;7.20;;;4.05;;
40204;SDS011;26963;42.666;23.366;2023-06-10T08:36:49;7.20;;;3.92;;
40204;SDS011;26963;42.666;23.366;2023-06-10T08:39:18;9.32;;;5.25;;
40204;SDS011;26963;42.666;23.366;2023-06-10T08:41:46;5.72;;;3.75;;
40204;SDS011;26963;42.666;23.366;2023-06-10T08:44:26;4.80;;;3.53;;
40204;SDS011;26963;42.666;23.366;2023-06-10T08:49:20;4.47;;;3.78;;
40204;SDS011;26963;42.666;23.366;2023-06-10T08:51:49;5.60;;;4.10;;
40204;SDS011;26963;42.666;23.366;2023-06-10T08:54:17;7.28;;;3.63;;
40204;SDS011;26963;42.666;23.366;2023-06-10T08:56:48;7.10;;;3.65;;
40204;SDS011;26963;42.666;23.366;2023-06-10T08:59:16;5.15;;;3.40;;
40204;SDS011;26963;42.666;23.366;2023-06-10T09:01:42;5.93;;;3.17;;
40204;SDS011;26963;42.666;23.366;2023-06-10T09:04:09;4.30;;;3.00;;
40204;SDS011;26963;42.666;23.366;2023-06-10T09:06:35;5.47;;;3.15;;
40204;SDS011;26963;42.666;23.366;2023-06-10T09:09:02;3.13;;;2.83;;
40204;SDS011;26963;42.666;23.366;2023-06-10T09:11:28;3.67;;;2.53;;
40204;SDS011;26963;42.666;23.366;2023-06-10T09:13:53;5.50;;;2.47;;
40204;SDS011;26963;42.666;23.366;2023-06-10T09:16:19;7.97;;;3.13;;
40204;SDS011;26963;42.666;23.366;2023-06-10T09:18:45;6.47;;;2.88;;
40204;SDS011;26963;42.666;23.366;2023-06-10T09:21:10;4.47;;;3.08;;
40204;SDS011;26963;42.666;23.366;2023-06-10T09:23:36;4.03;;;2.50;;
40204;SDS011;26963;42.666;23.366;2023-06-10T09:26:02;4.57;;;2.78;;
40204;SDS011;26963;42.666;23.366;2023-06-10T09:28:33;8.07;;;3.35;;
40204;SDS011;26963;42.666;23.366;2023-06-10T09:31:02;5.07;;;3.20;;
40204;SDS011;26963;42.666;23.366;2023-06-10T09:33:29;7.97;;;5.10;;
40204;SDS011;26963;42.666;23.366;2023-06-10T09:35:55;5.90;;;3.80;;
40204;SDS011;26963;42.666;23.366;2023-06-10T09:38:28;5.30;;;3.20;;
40204;SDS011;26963;42.666;23.366;2023-06-10T09:40:55;9.18;;;3.92;;
40204;SDS011;26963;42.666;23.366;2023-06-10T09:43:21;5.40;;;3.38;;
40204;SDS011;26963;42.666;23.366;2023-06-10T09:45:47;5.18;;;2.78;;
40204;SDS011;26963;42.666;23.366;2023-06-10T09:48:14;4.00;;;3.20;;
40204;SDS011;26963;42.666;23.366;2023-06-10T09:50:43;4.05;;;2.78;;
40204;SDS011;26963;42.666;23.366;2023-06-10T09:53:10;4.72;;;2.80;;
40204;SDS011;26963;42.666;23.366;2023-06-10T09:55:37;4.72;;;3.15;;
40204;SDS011;26963;42.666;23.366;2023-06-10T09:58:03;4.72;;;3.03;;
40204;SDS011;26963;42.666;23.366;2023-06-10T10:00:31;5.18;;;3.05;;
40204;SDS011;26963;42.666;23.366;2023-06-10T10:02:58;5.88;;;3.15;;
40204;SDS011;26963;42.666;23.366;2023-06-10T10:05:23;5.57;;;2.95;;
40204;SDS011;26963;42.666;23.366;2023-06-10T10:07:49;6.18;;;3.20;;
40204;SDS011;26963;42.666;23.366;2023-06-10T10:10:15;4.95;;;3.25;;
40204;SDS011;26963;42.666;23.366;2023-06-10T10:12:44;4.18;;;3.33;;
40204;SDS011;26963;42.666;23.366;2023-06-10T10:15:11;3.42;;;2.30;;
40204;SDS011;26963;42.666;23.366;2023-06-10T10:17:38;3.42;;;2.60;;
40204;SDS011;26963;42.666;23.366;2023-06-10T10:20:06;4.78;;;2.88;;
40204;SDS011;26963;42.666;23.366;2023-06-10T10:22:43;5.13;;;3.40;;
40204;SDS011;26963;42.666;23.366;2023-06-10T10:25:16;7.60;;;3.90;;
40204;SDS011;26963;42.666;23.366;2023-06-10T10:27:55;6.68;;;4.05;;
40204;SDS011;26963;42.666;23.366;2023-06-10T10:30:24;6.93;;;4.72;;
40204;SDS011;26963;42.666;23.366;2023-06-10T10:32:58;6.72;;;4.65;;
40204;SDS011;26963;42.666;23.366;2023-06-10T10:35:30;5.38;;;4.53;;
40204;SDS011;26963;42.666;23.366;2023-06-10T10:37:57;6.82;;;3.70;;
40204;SDS011;26963;42.666;23.366;2023-06-10T10:40:23;4.70;;;3.80;;
40204;SDS011;26963;42.666;23.366;2023-06-10T10:42:50;8.60;;;4.13;;
40204;SDS011;26963;42.666;23.366;2023-06-10T10:45:17;7.03;;;3.53;;
40204;SDS011;26963;42.666;23.366;2023-06-10T10:47:45;5.50;;;3.63;;
40204;SDS011;26963;42.666;23.366;2023-06-10T10:50:17;5.60;;;3.67;;
40204;SDS011;26963;42.666;23.366;2023-06-10T10:55:24;4.90;;;3.30;;
40204;SDS011;26963;42.666;23.366;2023-06-10T10:57:54;6.22;;;4.20;;
40204;SDS011;26963;42.666;23.366;2023-06-10T11:00:27;5.38;;;3.78;;
40204;SDS011;26963;42.666;23.366;2023-06-10T11:05:38;6.43;;;3.67;;
40204;SDS011;26963;42.666;23.366;2023-06-10T11:08:06;6.05;;;4.05;;
40204;SDS011;26963;42.666;23.366;2023-06-10T11:10:36;7.53;;;5.97;;
40204;SDS011;26963;42.666;23.366;2023-06-10T11:13:06;5.78;;;4.22;;
40204;SDS011;26963;42.666;23.366;2023-06-10T11:15:37;6.15;;;3.83;;
40204;SDS011;26963;42.666;23.366;2023-06-10T11:18:30;5.25;;;3.90;;
40204;SDS011;26963;42.666;23.366;2023-06-10T11:21:04;7.07;;;4.70;;
40204;SDS011;26963;42.666;23.366;2023-06-10T11:23:33;6.50;;;4.35;;
40204;SDS011;26963;42.666;23.366;2023-06-10T11:28:35;4.72;;;3.33;;
40204;SDS011;26963;42.666;23.366;2023-06-10T11:31:00;5.20;;;3.80;;
40204;SDS011;26963;42.666;23.366;2023-06-10T11:33:26;5.30;;;3.67;;
40204;SDS011;26963;42.666;23.366;2023-06-10T11:35:52;5.22;;;3.97;;
40204;SDS011;26963;42.666;23.366;2023-06-10T11:38:17;9.07;;;5.40;;
40204;SDS011;26963;42.666;23.366;2023-06-10T11:40:50;6.80;;;4.50;;
40204;SDS011;26963;42.666;23.366;2023-06-10T11:43:19;8.10;;;3.88;;
40204;SDS011;26963;42.666;23.366;2023-06-10T11:45:45;5.78;;;4.07;;
40204;SDS011;26963;42.666;23.366;2023-06-10T11:48:12;7.60;;;4.68;;
40204;SDS011;26963;42.666;23.366;2023-06-10T11:50:38;9.27;;;4.65;;
40204;SDS011;26963;42.666;23.366;2023-06-10T11:53:07;8.68;;;4.70;;
40204;SDS011;26963;42.666;23.366;2023-06-10T11:55:42;8.15;;;5.55;;
40204;SDS011;26963;42.666;23.366;2023-06-10T11:58:27;5.57;;;3.92;;
40204;SDS011;26963;42.666;23.366;2023-06-10T12:00:53;7.28;;;5.10;;
40204;SDS011;26963;42.666;23.366;2023-06-10T12:03:21;10.35;;;6.55;;
40204;SDS011;26963;42.666;23.366;2023-06-10T12:05:56;7.72;;;5.78;;
40204;SDS011;26963;42.666;23.366;2023-06-10T12:08:27;7.10;;;4.15;;
40204;SDS011;26963;42.666;23.366;2023-06-10T12:10:53;5.47;;;3.83;;
40204;SDS011;26963;42.666;23.366;2023-06-10T12:13:20;6.93;;;4.13;;
40204;SDS011;26963;42.666;23.366;2023-06-10T12:15:46;8.07;;;3.78;;
40204;SDS011;26963;42.666;23.366;2023-06-10T12:18:18;7.13;;;3.45;;
40204;SDS011;26963;42.666;23.366;2023-06-10T12:20:45;5.63;;;3.33;;
40204;SDS011;26963;42.666;23.366;2023-06-10T12:23:11;4.95;;;3.67;;
40204;SDS011;26963;42.666;23.366;2023-06-10T12:25:38;6.85;;;4.15;;
40204;SDS011;26963;42.666;23.366;2023-06-10T12:28:04;6.07;;;3.83;;
40204;SDS011;26963;42.666;23.366;2023-06-10T12:30:30;5.88;;;3.38;;
40204;SDS011;26963;42.666;23.366;2023-06-10T12:32:56;4.50;;;3.42;;
40204;SDS011;26963;42.666;23.366;2023-06-10T12:35:24;6.20;;;5.25;;
40204;SDS011;26963;42.666;23.366;2023-06-10T12:38:09;9.52;;;5.03;;
40204;SDS011;26963;42.666;23.366;2023-06-10T12:40:37;5.28;;;3.60;;
40204;SDS011;26963;42.666;23.366;2023-06-10T12:43:08;5.93;;;4.45;;
40204;SDS011;26963;42.666;23.366;2023-06-10T12:45:35;5.57;;;3.45;;
40204;SDS011;26963;42.666;23.366;2023-06-10T12:48:09;5.90;;;3.40;;
40204;SDS011;26963;42.666;23.366;2023-06-10T12:50:38;4.63;;;3.70;;
40204;SDS011;26963;42.666;23.366;2023-06-10T12:53:04;3.67;;;2.80;;
40204;SDS011;26963;42.666;23.366;2023-06-10T12:55:30;4.75;;;3.22;;
40204;SDS011;26963;42.666;23.366;2023-06-10T12:57:57;4.93;;;3.33;;
40204;SDS011;26963;42.666;23.366;2023-06-10T13:00:23;5.70;;;3.20;;
40204;SDS011;26963;42.666;23.366;2023-06-10T13:02:55;5.03;;;3.20;;
40204;SDS011;26963;42.666;23.366;2023-06-10T13:05:27;4.90;;;3.78;;
40204;SDS011;26963;42.666;23.366;2023-06-10T13:07:53;31.38;;;28.05;;
40204;SDS011;26963;42.666;23.366;2023-06-10T13:10:20;10.13;;;9.13;;
40204;SDS011;26963;42.666;23.366;2023-06-10T13:12:46;6.90;;;4.20;;
40204;SDS011;26963;42.666;23.366;2023-06-10T13:15:12;5.47;;;3.80;;
40204;SDS011;26963;42.666;23.366;2023-06-10T13:17:39;4.78;;;3.08;;
40204;SDS011;26963;42.666;23.366;2023-06-10T13:20:05;4.50;;;3.15;;
40204;SDS011;26963;42.666;23.366;2023-06-10T13:22:33;8.55;;;3.28;;
40204;SDS011;26963;42.666;23.366;2023-06-10T13:25:00;5.68;;;3.55;;
40204;SDS011;26963;42.666;23.366;2023-06-10T13:27:30;6.13;;;3.80;;
40204;SDS011;26963;42.666;23.366;2023-06-10T13:29:56;7.13;;;3.75;;
40204;SDS011;26963;42.666;23.366;2023-06-10T13:32:22;5.28;;;3.85;;
40204;SDS011;26963;42.666;23.366;2023-06-10T13:34:48;10.00;;;4.47;;
40204;SDS011;26963;42.666;23.366;2023-06-10T13:37:14;8.40;;;4.53;;
40204;SDS011;26963;42.666;23.366;2023-06-10T13:39:42;6.63;;;4.00;;
40204;SDS011;26963;42.666;23.366;2023-06-10T13:42:07;7.43;;;4.20;;
40204;SDS011;26963;42.666;23.366;2023-06-10T13:44:34;7.70;;;4.35;;
40204;SDS011;26963;42.666;23.366;2023-06-10T13:47:04;8.25;;;4.45;;
40204;SDS011;26963;42.666;23.366;2023-06-10T13:49:30;8.63;;;5.30;;
40204;SDS011;26963;42.666;23.366;2023-06-10T13:51:56;9.57;;;5.50;;
40204;SDS011;26963;42.666;23.366;2023-06-10T13:54:21;5.75;;;4.75;;
40204;SDS011;26963;42.666;23.366;2023-06-10T13:56:47;12.77;;;5.30;;
40204;SDS011;26963;42.666;23.366;2023-06-10T13:59:12;10.23;;;4.88;;
40204;SDS011;26963;42.666;23.366;2023-06-10T14:01:38;9.25;;;6.30;;
40204;SDS011;26963;42.666;23.366;2023-06-10T14:04:05;7.90;;;5.13;;
40204;SDS011;26963;42.666;23.366;2023-06-10T14:06:32;16.05;;;11.27;;
40204;SDS011;26963;42.666;23.366;2023-06-10T14:08:58;8.20;;;6.43;;
40204;SDS011;26963;42.666;23.366;2023-06-10T14:11:24;10.70;;;6.78;;
40204;SDS011;26963;42.666;23.366;2023-06-10T14:13:50;7.45;;;4.10;;
40204;SDS011;26963;42.666;23.366;2023-06-10T14:16:16;7.32;;;4.60;;
40204;SDS011;26963;42.666;23.366;2023-06-10T14:18:41;7.20;;;4.30;;
40204;SDS011;26963;42.666;23.366;2023-06-10T14:21:07;7.03;;;4.60;;
40204;SDS011;26963;42.666;23.366;2023-06-10T14:23:33;5.70;;;4.43;;
40204;SDS011;26963;42.666;23.366;2023-06-10T14:25:58;6.57;;;4.47;;
40204;SDS011;26963;42.666;23.366;2023-06-10T14:28:24;7.82;;;4.40;;
40204;SDS011;26963;42.666;23.366;2023-06-10T14:30:54;6.93;;;3.97;;
40204;SDS011;26963;42.666;23.366;2023-06-10T14:33:20;5.28;;;3.92;;
40204;SDS011;26963;42.666;23.366;2023-06-10T14:35:46;6.07;;;4.28;;
40204;SDS011;26963;42.666;23.366;2023-06-10T14:38:11;6.93;;;4.65;;
40204;SDS011;26963;42.666;23.366;2023-06-10T14:40:37;6.57;;;4.40;;
40204;SDS011;26963;42.666;23.366;2023-06-10T14:43:02;7.07;;;4.15;;
40204;SDS011;26963;42.666;23.366;2023-06-10T14:45:34;6.03;;;4.45;;